sensor_id;sensor_type;location;lat;lon;timestamp;temperature;humidity
20081;DHT22;10200;49.232;9.222;2023-03-14T00:01:09;11.50;99.90
20081;DHT22;10200;49.232;9.222;2023-03-14T00:03:35;11.50;99.90
20081;DHT22;10200;49.232;9.222;2023-03-14T00:06:04;11.50;99.90
20081;DHT22;10200;49.232;9.222;2023-03-14T00:08:30;11.50;99.90
20081;DHT22;10200;49.232;9.222;2023-03-14T00:10:56;11.50;99.90
20081;DHT22;10200;49.232;9.222;2023-03-14T00:13:23;11.50;99.90
20081;DHT22;10200;49.232;9.222;2023-03-14T00:15:49;11.50;99.90
20081;DHT22;10200;49.232;9.222;2023-03-14T00:18:14;11.50;99.90
20081;DHT22;10200;49.232;9.222;2023-03-14T00:20:40;11.50;99.90
20081;DHT22;10200;49.232;9.222;2023-03-14T00:23:06;11.50;99.90
20081;DHT22;10200;49.232;9.222;2023-03-14T00:25:32;11.50;99.90
20081;DHT22;10200;49.232;9.222;2023-03-14T00:27:57;11.50;99.90
20081;DHT22;10200;49.232;9.222;2023-03-14T00:30:23;11.50;99.90
20081;DHT22;10200;49.232;9.222;2023-03-14T00:32:49;11.50;99.90
20081;DHT22;10200;49.232;9.222;2023-03-14T00:35:15;11.50;99.90
20081;DHT22;10200;49.232;9.222;2023-03-14T00:37:41;11.50;99.90
20081;DHT22;10200;49.232;9.222;2023-03-14T00:40:07;11.50;99.90
20081;DHT22;10200;49.232;9.222;2023-03-14T00:42:34;11.50;99.90
20081;DHT22;10200;49.232;9.222;2023-03-14T00:44:59;11.50;99.90
20081;DHT22;10200;49.232;9.222;2023-03-14T00:47:25;11.50;99.90
20081;DHT22;10200;49.232;9.222;2023-03-14T00:49:50;11.50;99.90
20081;DHT22;10200;49.232;9.222;2023-03-14T00:52:16;11.50;99.90
20081;DHT22;10200;49.232;9.222;2023-03-14T00:54:42;11.50;99.90
20081;DHT22;10200;49.232;9.222;2023-03-14T00:57:07;11.50;99.90
20081;DHT22;10200;49.232;9.222;2023-03-14T00:59:33;11.50;99.90
20081;DHT22;10200;49.232;9.222;2023-03-14T01:01:58;11.50;99.90
20081;DHT22;10200;49.232;9.222;2023-03-14T01:04:24;11.50;99.90
20081;DHT22;10200;49.232;9.222;2023-03-14T01:06:49;11.50;99.90
20081;DHT22;10200;49.232;9.222;2023-03-14T01:09:15;11.50;99.90
20081;DHT22;10200;49.232;9.222;2023-03-14T01:11:43;11.50;99.90
20081;DHT22;10200;49.232;9.222;2023-03-14T01:14:12;11.50;99.90
20081;DHT22;10200;49.232;9.222;2023-03-14T01:16:38;11.50;99.90
20081;DHT22;10200;49.232;9.222;2023-03-14T01:19:04;11.50;99.90
20081;DHT22;10200;49.232;9.222;2023-03-14T01:21:32;11.50;99.90
20081;DHT22;10200;49.232;9.222;2023-03-14T01:24:00;11.50;99.90
20081;DHT22;10200;49.232;9.222;2023-03-14T01:26:29;11.50;99.90
20081;DHT22;10200;49.232;9.222;2023-03-14T01:28:55;11.50;99.90
20081;DHT22;10200;49.232;9.222;2023-03-14T01:31:21;11.40;99.90
20081;DHT22;10200;49.232;9.222;2023-03-14T01:33:47;11.40;99.90
20081;DHT22;10200;49.232;9.222;2023-03-14T01:36:13;11.40;99.90
20081;DHT22;10200;49.232;9.222;2023-03-14T01:38:39;11.40;99.90
20081;DHT22;10200;49.232;9.222;2023-03-14T01:41:07;11.50;99.90
20081;DHT22;10200;49.232;9.222;2023-03-14T01:43:33;11.40;99.90
20081;DHT22;10200;49.232;9.222;2023-03-14T01:48:37;11.50;99.90
20081;DHT22;10200;49.232;9.222;2023-03-14T01:51:06;11.50;99.90
20081;DHT22;10200;49.232;9.222;2023-03-14T01:53:34;11.50;99.90
20081;DHT22;10200;49.232;9.222;2023-03-14T01:56:00;11.50;99.90
20081;DHT22;10200;49.232;9.222;2023-03-14T01:58:27;11.50;99.90
20081;DHT22;10200;49.232;9.222;2023-03-14T02:00:57;11.50;99.90
20081;DHT22;10200;49.232;9.222;2023-03-14T02:03:24;11.40;99.90
20081;DHT22;10200;49.232;9.222;2023-03-14T02:05:53;11.40;99.90
20081;DHT22;10200;49.232;9.222;2023-03-14T02:08:22;11.40;99.90
20081;DHT22;10200;49.232;9.222;2023-03-14T02:10:49;11.40;99.90
20081;DHT22;10200;49.232;9.222;2023-03-14T02:13:17;11.40;99.90
20081;DHT22;10200;49.232;9.222;2023-03-14T02:15:43;11.40;99.90
20081;DHT22;10200;49.232;9.222;2023-03-14T02:18:10;11.40;99.90
20081;DHT22;10200;49.232;9.222;2023-03-14T02:23:24;11.40;99.90
20081;DHT22;10200;49.232;9.222;2023-03-14T02:26:06;11.40;99.90
20081;DHT22;10200;49.232;9.222;2023-03-14T02:28:34;11.40;99.90
20081;DHT22;10200;49.232;9.222;2023-03-14T02:31:00;11.40;99.90
20081;DHT22;10200;49.232;9.222;2023-03-14T02:33:26;11.30;99.90
20081;DHT22;10200;49.232;9.222;2023-03-14T02:35:59;11.40;99.90
20081;DHT22;10200;49.232;9.222;2023-03-14T02:38:33;11.40;99.90
20081;DHT22;10200;49.232;9.222;2023-03-14T02:41:00;11.40;99.90
20081;DHT22;10200;49.232;9.222;2023-03-14T02:43:25;11.30;99.90
20081;DHT22;10200;49.232;9.222;2023-03-14T02:45:52;11.30;99.90
20081;DHT22;10200;49.232;9.222;2023-03-14T02:48:30;11.40;99.90
20081;DHT22;10200;49.232;9.222;2023-03-14T02:50:59;11.40;99.90
20081;DHT22;10200;49.232;9.222;2023-03-14T02:53:27;11.40;99.90
20081;DHT22;10200;49.232;9.222;2023-03-14T02:55:53;11.40;99.90
20081;DHT22;10200;49.232;9.222;2023-03-14T02:58:19;11.40;99.90
20081;DHT22;10200;49.232;9.222;2023-03-14T03:00:44;11.40;99.90
20081;DHT22;10200;49.232;9.222;2023-03-14T03:03:11;11.40;99.90
20081;DHT22;10200;49.232;9.222;2023-03-14T03:05:36;11.30;99.90
20081;DHT22;10200;49.232;9.222;2023-03-14T03:08:03;11.40;99.90
20081;DHT22;10200;49.232;9.222;2023-03-14T03:10:29;11.30;99.90
20081;DHT22;10200;49.232;9.222;2023-03-14T03:12:55;11.30;99.90
20081;DHT22;10200;49.232;9.222;2023-03-14T03:15:21;11.40;99.90
20081;DHT22;10200;49.232;9.222;2023-03-14T03:17:46;11.30;99.90
20081;DHT22;10200;49.232;9.222;2023-03-14T03:20:12;11.30;99.90
20081;DHT22;10200;49.232;9.222;2023-03-14T03:22:38;11.40;99.90
20081;DHT22;10200;49.232;9.222;2023-03-14T03:25:05;11.30;99.90
20081;DHT22;10200;49.232;9.222;2023-03-14T03:27:32;11.40;99.90
20081;DHT22;10200;49.232;9.222;2023-03-14T03:29:58;11.30;99.90
20081;DHT22;10200;49.232;9.222;2023-03-14T03:32:24;11.30;99.90
20081;DHT22;10200;49.232;9.222;2023-03-14T03:34:50;11.30;99.90
20081;DHT22;10200;49.232;9.222;2023-03-14T03:37:16;11.30;99.90
20081;DHT22;10200;49.232;9.222;2023-03-14T03:39:41;11.30;99.90
20081;DHT22;10200;49.232;9.222;2023-03-14T03:42:07;11.30;99.90
20081;DHT22;10200;49.232;9.222;2023-03-14T03:44:32;11.30;99.90
20081;DHT22;10200;49.232;9.222;2023-03-14T03:46:58;11.30;99.90
20081;DHT22;10200;49.232;9.222;2023-03-14T03:49:24;11.30;99.90
20081;DHT22;10200;49.232;9.222;2023-03-14T03:51:49;11.30;99.90
20081;DHT22;10200;49.232;9.222;2023-03-14T03:54:15;11.20;99.90
20081;DHT22;10200;49.232;9.222;2023-03-14T03:56:41;11.20;99.90
20081;DHT22;10200;49.232;9.222;2023-03-14T03:59:06;11.20;99.90
20081;DHT22;10200;49.232;9.222;2023-03-14T04:01:32;11.20;99.90
20081;DHT22;10200;49.232;9.222;2023-03-14T04:03:57;11.20;99.90
20081;DHT22;10200;49.232;9.222;2023-03-14T04:06:23;11.20;99.90
20081;DHT22;10200;49.232;9.222;2023-03-14T04:08:48;11.20;99.90
20081;DHT22;10200;49.232;9.222;2023-03-14T04:11:14;11.20;99.90
20081;DHT22;10200;49.232;9.222;2023-03-14T04:13:39;11.20;99.90
20081;DHT22;10200;49.232;9.222;2023-03-14T04:16:14;11.20;99.90
20081;DHT22;10200;49.232;9.222;2023-03-14T04:18:40;11.20;99.90
20081;DHT22;10200;49.232;9.222;2023-03-14T04:21:06;11.20;99.90
20081;DHT22;10200;49.232;9.222;2023-03-14T04:23:32;11.20;99.90
20081;DHT22;10200;49.232;9.222;2023-03-14T04:25:58;11.20;99.90
20081;DHT22;10200;49.232;9.222;2023-03-14T04:28:24;11.20;99.90
20081;DHT22;10200;49.232;9.222;2023-03-14T04:30:49;11.20;99.90
20081;DHT22;10200;49.232;9.222;2023-03-14T04:33:15;11.20;99.90
20081;DHT22;10200;49.232;9.222;2023-03-14T04:35:43;11.20;99.90
20081;DHT22;10200;49.232;9.222;2023-03-14T04:38:08;11.20;99.90
20081;DHT22;10200;49.232;9.222;2023-03-14T04:40:37;11.20;99.90
20081;DHT22;10200;49.232;9.222;2023-03-14T04:43:03;11.20;99.90
20081;DHT22;10200;49.232;9.222;2023-03-14T04:45:28;11.20;99.90
20081;DHT22;10200;49.232;9.222;2023-03-14T04:47:54;11.20;99.90
20081;DHT22;10200;49.232;9.222;2023-03-14T04:50:19;11.20;99.90
20081;DHT22;10200;49.232;9.222;2023-03-14T04:52:45;11.20;99.90
20081;DHT22;10200;49.232;9.222;2023-03-14T04:55:10;11.30;99.90
20081;DHT22;10200;49.232;9.222;2023-03-14T04:57:36;11.20;99.90
20081;DHT22;10200;49.232;9.222;2023-03-14T05:00:02;11.20;99.90
20081;DHT22;10200;49.232;9.222;2023-03-14T05:02:31;11.20;99.90
20081;DHT22;10200;49.232;9.222;2023-03-14T05:04:57;11.20;99.90
20081;DHT22;10200;49.232;9.222;2023-03-14T05:07:22;11.10;99.90
20081;DHT22;10200;49.232;9.222;2023-03-14T05:09:48;11.20;99.90
20081;DHT22;10200;49.232;9.222;2023-03-14T05:12:14;11.10;99.90
20081;DHT22;10200;49.232;9.222;2023-03-14T05:14:39;11.10;99.90
20081;DHT22;10200;49.232;9.222;2023-03-14T05:17:05;11.10;99.90
20081;DHT22;10200;49.232;9.222;2023-03-14T05:19:31;11.10;99.90
20081;DHT22;10200;49.232;9.222;2023-03-14T05:21:57;11.10;99.90
20081;DHT22;10200;49.232;9.222;2023-03-14T05:24:22;11.10;99.90
20081;DHT22;10200;49.232;9.222;2023-03-14T05:26:48;11.10;99.90
20081;DHT22;10200;49.232;9.222;2023-03-14T05:29:13;11.10;99.90
20081;DHT22;10200;49.232;9.222;2023-03-14T05:31:39;11.10;99.90
20081;DHT22;10200;49.232;9.222;2023-03-14T05:34:04;11.00;99.90
20081;DHT22;10200;49.232;9.222;2023-03-14T05:36:30;11.00;99.90
20081;DHT22;10200;49.232;9.222;2023-03-14T05:38:56;11.00;99.90
20081;DHT22;10200;49.232;9.222;2023-03-14T05:41:21;11.10;99.90
20081;DHT22;10200;49.232;9.222;2023-03-14T05:43:47;11.10;99.90
20081;DHT22;10200;49.232;9.222;2023-03-14T05:46:12;11.10;99.90
20081;DHT22;10200;49.232;9.222;2023-03-14T05:48:38;11.10;99.90
20081;DHT22;10200;49.232;9.222;2023-03-14T05:51:04;11.10;99.90
20081;DHT22;10200;49.232;9.222;2023-03-14T05:53:29;11.10;99.90
20081;DHT22;10200;49.232;9.222;2023-03-14T05:55:56;11.10;99.90
20081;DHT22;10200;49.232;9.222;2023-03-14T05:58:22;11.10;99.90
20081;DHT22;10200;49.232;9.222;2023-03-14T06:00:48;11.20;99.90
20081;DHT22;10200;49.232;9.222;2023-03-14T06:03:13;11.20;99.90
20081;DHT22;10200;49.232;9.222;2023-03-14T06:05:39;11.20;99.90
20081;DHT22;10200;49.232;9.222;2023-03-14T06:08:04;11.20;99.90
20081;DHT22;10200;49.232;9.222;2023-03-14T06:10:30;11.10;99.90
20081;DHT22;10200;49.232;9.222;2023-03-14T06:12:55;11.20;99.90
20081;DHT22;10200;49.232;9.222;2023-03-14T06:15:21;11.20;99.90
20081;DHT22;10200;49.232;9.222;2023-03-14T06:17:47;11.20;99.90
20081;DHT22;10200;49.232;9.222;2023-03-14T06:20:12;11.20;99.90
20081;DHT22;10200;49.232;9.222;2023-03-14T06:22:38;11.20;99.90
20081;DHT22;10200;49.232;9.222;2023-03-14T06:25:06;11.20;99.90
20081;DHT22;10200;49.232;9.222;2023-03-14T06:27:31;11.20;99.90
20081;DHT22;10200;49.232;9.222;2023-03-14T06:29:57;11.20;99.90
20081;DHT22;10200;49.232;9.222;2023-03-14T06:32:22;11.20;99.90
20081;DHT22;10200;49.232;9.222;2023-03-14T06:34:48;11.20;99.90
20081;DHT22;10200;49.232;9.222;2023-03-14T06:37:14;11.30;99.90
20081;DHT22;10200;49.232;9.222;2023-03-14T06:39:40;11.30;99.90
20081;DHT22;10200;49.232;9.222;2023-03-14T06:42:06;11.50;99.90
20081;DHT22;10200;49.232;9.222;2023-03-14T06:44:31;11.50;99.90
20081;DHT22;10200;49.232;9.222;2023-03-14T06:46:57;11.60;99.90
20081;DHT22;10200;49.232;9.222;2023-03-14T06:49:22;11.70;99.90
20081;DHT22;10200;49.232;9.222;2023-03-14T06:51:48;11.80;99.90
20081;DHT22;10200;49.232;9.222;2023-03-14T06:54:14;11.70;99.90
20081;DHT22;10200;49.232;9.222;2023-03-14T06:56:39;11.70;99.90
20081;DHT22;10200;49.232;9.222;2023-03-14T06:59:05;11.60;99.90
20081;DHT22;10200;49.232;9.222;2023-03-14T07:01:31;11.60;99.90
20081;DHT22;10200;49.232;9.222;2023-03-14T07:03:58;11.50;99.90
20081;DHT22;10200;49.232;9.222;2023-03-14T07:06:24;11.50;99.90
20081;DHT22;10200;49.232;9.222;2023-03-14T07:08:51;11.50;99.90
20081;DHT22;10200;49.232;9.222;2023-03-14T07:11:16;11.50;99.90
20081;DHT22;10200;49.232;9.222;2023-03-14T07:13:42;11.50;99.90
20081;DHT22;10200;49.232;9.222;2023-03-14T07:16:08;11.50;99.90
20081;DHT22;10200;49.232;9.222;2023-03-14T07:18:33;11.50;99.90
20081;DHT22;10200;49.232;9.222;2023-03-14T07:20:59;11.50;99.90
20081;DHT22;10200;49.232;9.222;2023-03-14T07:23:25;11.50;99.90
20081;DHT22;10200;49.232;9.222;2023-03-14T07:25:50;11.60;99.90
20081;DHT22;10200;49.232;9.222;2023-03-14T07:28:17;11.60;99.90
20081;DHT22;10200;49.232;9.222;2023-03-14T07:30:42;11.60;99.90
20081;DHT22;10200;49.232;9.222;2023-03-14T07:33:08;11.60;99.90
20081;DHT22;10200;49.232;9.222;2023-03-14T07:35:33;11.60;99.90
20081;DHT22;10200;49.232;9.222;2023-03-14T07:37:59;11.60;99.90
20081;DHT22;10200;49.232;9.222;2023-03-14T07:40:24;11.70;99.90
20081;DHT22;10200;49.232;9.222;2023-03-14T07:42:50;11.70;99.90
20081;DHT22;10200;49.232;9.222;2023-03-14T07:45:16;11.70;99.90
20081;DHT22;10200;49.232;9.222;2023-03-14T07:47:42;11.80;99.90
20081;DHT22;10200;49.232;9.222;2023-03-14T07:50:08;11.80;99.90
20081;DHT22;10200;49.232;9.222;2023-03-14T07:52:34;11.90;99.90
20081;DHT22;10200;49.232;9.222;2023-03-14T07:54:59;12.00;99.90
20081;DHT22;10200;49.232;9.222;2023-03-14T07:57:25;12.00;99.90
20081;DHT22;10200;49.232;9.222;2023-03-14T07:59:50;12.20;99.90
20081;DHT22;10200;49.232;9.222;2023-03-14T08:02:16;12.20;99.90
20081;DHT22;10200;49.232;9.222;2023-03-14T08:04:43;12.20;99.90
20081;DHT22;10200;49.232;9.222;2023-03-14T08:07:08;12.20;99.90
20081;DHT22;10200;49.232;9.222;2023-03-14T08:09:34;12.30;99.90
20081;DHT22;10200;49.232;9.222;2023-03-14T08:11:59;12.40;99.90
20081;DHT22;10200;49.232;9.222;2023-03-14T08:14:25;12.40;99.90
20081;DHT22;10200;49.232;9.222;2023-03-14T08:16:51;12.50;99.90
20081;DHT22;10200;49.232;9.222;2023-03-14T08:19:17;12.60;99.90
20081;DHT22;10200;49.232;9.222;2023-03-14T08:21:43;12.90;99.90
20081;DHT22;10200;49.232;9.222;2023-03-14T08:24:09;13.70;99.90
20081;DHT22;10200;49.232;9.222;2023-03-14T08:26:34;14.40;99.90
20081;DHT22;10200;49.232;9.222;2023-03-14T08:29:00;15.00;99.10
20081;DHT22;10200;49.232;9.222;2023-03-14T08:31:25;15.70;96.00
20081;DHT22;10200;49.232;9.222;2023-03-14T08:33:51;15.80;90.90
20081;DHT22;10200;49.232;9.222;2023-03-14T08:36:19;15.50;87.20
20081;DHT22;10200;49.232;9.222;2023-03-14T08:38:44;15.30;86.30
20081;DHT22;10200;49.232;9.222;2023-03-14T08:41:10;15.10;86.70
20081;DHT22;10200;49.232;9.222;2023-03-14T08:43:36;15.10;87.60
20081;DHT22;10200;49.232;9.222;2023-03-14T08:46:02;15.20;88.10
20081;DHT22;10200;49.232;9.222;2023-03-14T08:48:28;15.30;87.50
20081;DHT22;10200;49.232;9.222;2023-03-14T08:50:56;15.10;87.30
20081;DHT22;10200;49.232;9.222;2023-03-14T08:53:22;14.80;87.90
20081;DHT22;10200;49.232;9.222;2023-03-14T08:55:52;14.60;89.70
20081;DHT22;10200;49.232;9.222;2023-03-14T08:58:18;14.50;90.10
20081;DHT22;10200;49.232;9.222;2023-03-14T09:00:43;14.30;90.40
20081;DHT22;10200;49.232;9.222;2023-03-14T09:03:09;14.20;91.30
20081;DHT22;10200;49.232;9.222;2023-03-14T09:05:34;14.10;91.60
20081;DHT22;10200;49.232;9.222;2023-03-14T09:08:00;14.00;91.50
20081;DHT22;10200;49.232;9.222;2023-03-14T09:10:26;13.90;91.80
20081;DHT22;10200;49.232;9.222;2023-03-14T09:12:52;14.00;92.10
20081;DHT22;10200;49.232;9.222;2023-03-14T09:15:17;13.90;92.00
20081;DHT22;10200;49.232;9.222;2023-03-14T09:17:43;13.80;92.40
20081;DHT22;10200;49.232;9.222;2023-03-14T09:20:10;13.80;92.70
20081;DHT22;10200;49.232;9.222;2023-03-14T09:22:36;13.70;92.50
20081;DHT22;10200;49.232;9.222;2023-03-14T09:25:05;13.60;92.60
20081;DHT22;10200;49.232;9.222;2023-03-14T09:27:31;13.50;93.10
20081;DHT22;10200;49.232;9.222;2023-03-14T09:29:56;13.40;93.50
20081;DHT22;10200;49.232;9.222;2023-03-14T09:32:22;13.40;94.20
20081;DHT22;10200;49.232;9.222;2023-03-14T09:34:48;13.40;94.60
20081;DHT22;10200;49.232;9.222;2023-03-14T09:37:14;13.40;94.60
20081;DHT22;10200;49.232;9.222;2023-03-14T09:39:41;13.40;94.60
20081;DHT22;10200;49.232;9.222;2023-03-14T09:42:10;13.40;94.80
20081;DHT22;10200;49.232;9.222;2023-03-14T09:44:47;13.40;94.70
20081;DHT22;10200;49.232;9.222;2023-03-14T09:47:17;13.30;94.70
20081;DHT22;10200;49.232;9.222;2023-03-14T09:49:45;13.30;94.70
20081;DHT22;10200;49.232;9.222;2023-03-14T09:52:18;13.30;94.90
20081;DHT22;10200;49.232;9.222;2023-03-14T09:54:56;13.30;95.40
20081;DHT22;10200;49.232;9.222;2023-03-14T09:57:24;13.40;95.40
20081;DHT22;10200;49.232;9.222;2023-03-14T09:59:53;13.30;95.50
20081;DHT22;10200;49.232;9.222;2023-03-14T10:02:32;13.30;95.90
20081;DHT22;10200;49.232;9.222;2023-03-14T10:05:00;13.30;96.20
20081;DHT22;10200;49.232;9.222;2023-03-14T10:07:30;13.40;96.10
20081;DHT22;10200;49.232;9.222;2023-03-14T10:09:56;13.40;96.30
20081;DHT22;10200;49.232;9.222;2023-03-14T10:12:34;13.50;96.80
20081;DHT22;10200;49.232;9.222;2023-03-14T10:15:12;13.50;95.90
20081;DHT22;10200;49.232;9.222;2023-03-14T10:17:46;13.50;95.60
20081;DHT22;10200;49.232;9.222;2023-03-14T10:20:33;13.50;95.80
20081;DHT22;10200;49.232;9.222;2023-03-14T10:25:33;13.50;96.00
20081;DHT22;10200;49.232;9.222;2023-03-14T10:27:59;13.50;96.50
20081;DHT22;10200;49.232;9.222;2023-03-14T10:32:53;13.80;96.60
20081;DHT22;10200;49.232;9.222;2023-03-14T10:35:21;13.90;96.50
20081;DHT22;10200;49.232;9.222;2023-03-14T10:38:01;14.00;96.30
20081;DHT22;10200;49.232;9.222;2023-03-14T10:40:39;14.00;96.30
20081;DHT22;10200;49.232;9.222;2023-03-14T10:43:11;13.90;95.70
20081;DHT22;10200;49.232;9.222;2023-03-14T10:45:40;13.90;96.00
20081;DHT22;10200;49.232;9.222;2023-03-14T10:48:34;13.80;96.00
20081;DHT22;10200;49.232;9.222;2023-03-14T10:51:17;13.80;96.50
20081;DHT22;10200;49.232;9.222;2023-03-14T10:53:45;13.70;96.70
20081;DHT22;10200;49.232;9.222;2023-03-14T10:56:12;13.60;98.10
20081;DHT22;10200;49.232;9.222;2023-03-14T10:58:49;13.60;99.90
20081;DHT22;10200;49.232;9.222;2023-03-14T11:07:38;13.50;99.90
20081;DHT22;10200;49.232;9.222;2023-03-14T11:10:31;13.40;99.90
20081;DHT22;10200;49.232;9.222;2023-03-14T11:13:16;13.40;99.90
20081;DHT22;10200;49.232;9.222;2023-03-14T11:15:53;13.30;99.90
20081;DHT22;10200;49.232;9.222;2023-03-14T11:21:02;13.20;99.90
20081;DHT22;10200;49.232;9.222;2023-03-14T11:23:53;13.20;99.90
20081;DHT22;10200;49.232;9.222;2023-03-14T11:26:40;13.10;99.90
20081;DHT22;10200;49.232;9.222;2023-03-14T11:31:51;13.00;99.90
20081;DHT22;10200;49.232;9.222;2023-03-14T11:34:39;13.00;99.90
20081;DHT22;10200;49.232;9.222;2023-03-14T11:37:14;13.00;99.90
20081;DHT22;10200;49.232;9.222;2023-03-14T11:39:41;13.00;99.90
20081;DHT22;10200;49.232;9.222;2023-03-14T11:42:13;12.90;99.90
20081;DHT22;10200;49.232;9.222;2023-03-14T11:44:40;12.80;99.90
20081;DHT22;10200;49.232;9.222;2023-03-14T11:47:13;12.80;99.90
20081;DHT22;10200;49.232;9.222;2023-03-14T11:50:22;12.70;99.90
20081;DHT22;10200;49.232;9.222;2023-03-14T11:53:11;12.60;99.90
20081;DHT22;10200;49.232;9.222;2023-03-14T11:55:38;12.50;99.90
20081;DHT22;10200;49.232;9.222;2023-03-14T12:00:47;12.20;99.90
20081;DHT22;10200;49.232;9.222;2023-03-14T12:03:39;12.10;99.90
20081;DHT22;10200;49.232;9.222;2023-03-14T12:06:19;12.10;99.90
20081;DHT22;10200;49.232;9.222;2023-03-14T12:14:01;12.00;99.90
20081;DHT22;10200;49.232;9.222;2023-03-14T12:16:36;12.00;99.90
20081;DHT22;10200;49.232;9.222;2023-03-14T12:22:24;11.90;99.90
20081;DHT22;10200;49.232;9.222;2023-03-14T12:25:04;11.90;99.90
20081;DHT22;10200;49.232;9.222;2023-03-14T12:30:26;11.70;99.90
20081;DHT22;10200;49.232;9.222;2023-03-14T12:36:01;11.60;99.90
20081;DHT22;10200;49.232;9.222;2023-03-14T12:41:28;11.50;99.90
20081;DHT22;10200;49.232;9.222;2023-03-14T12:43:55;11.30;99.90
20081;DHT22;10200;49.232;9.222;2023-03-14T12:46:26;11.20;99.90
20081;DHT22;10200;49.232;9.222;2023-03-14T12:49:10;11.20;99.90
20081;DHT22;10200;49.232;9.222;2023-03-14T12:51:41;11.10;99.90
20081;DHT22;10200;49.232;9.222;2023-03-14T12:54:15;11.00;99.90
20081;DHT22;10200;49.232;9.222;2023-03-14T12:59:45;10.80;99.90
20081;DHT22;10200;49.232;9.222;2023-03-14T13:02:25;10.80;99.90
20081;DHT22;10200;49.232;9.222;2023-03-14T13:12:55;10.50;99.90
20081;DHT22;10200;49.232;9.222;2023-03-14T13:15:26;10.50;99.90
20081;DHT22;10200;49.232;9.222;2023-03-14T13:17:54;10.50;99.90
20081;DHT22;10200;49.232;9.222;2023-03-14T13:20:27;10.50;99.90
20081;DHT22;10200;49.232;9.222;2023-03-14T13:22:53;10.60;99.90
20081;DHT22;10200;49.232;9.222;2023-03-14T13:25:19;10.50;99.90
20081;DHT22;10200;49.232;9.222;2023-03-14T13:27:47;10.50;99.90
20081;DHT22;10200;49.232;9.222;2023-03-14T13:32:43;10.50;99.90
20081;DHT22;10200;49.232;9.222;2023-03-14T13:35:27;10.50;99.90
20081;DHT22;10200;49.232;9.222;2023-03-14T13:37:57;10.60;99.90
20081;DHT22;10200;49.232;9.222;2023-03-14T13:40:32;10.70;99.90
20081;DHT22;10200;49.232;9.222;2023-03-14T13:43:04;10.70;99.90
20081;DHT22;10200;49.232;9.222;2023-03-14T13:45:30;10.80;99.70
20081;DHT22;10200;49.232;9.222;2023-03-14T13:47:55;10.80;99.50
20081;DHT22;10200;49.232;9.222;2023-03-14T13:50:21;10.90;99.00
20081;DHT22;10200;49.232;9.222;2023-03-14T13:52:47;11.00;97.20
20081;DHT22;10200;49.232;9.222;2023-03-14T13:55:19;11.00;96.00
20081;DHT22;10200;49.232;9.222;2023-03-14T13:57:48;11.10;95.10
20081;DHT22;10200;49.232;9.222;2023-03-14T14:00:19;11.30;93.40
20081;DHT22;10200;49.232;9.222;2023-03-14T14:02:46;11.40;92.40
20081;DHT22;10200;49.232;9.222;2023-03-14T14:05:12;11.40;90.40
20081;DHT22;10200;49.232;9.222;2023-03-14T14:07:39;11.40;89.60
20081;DHT22;10200;49.232;9.222;2023-03-14T14:10:05;11.50;87.50
20081;DHT22;10200;49.232;9.222;2023-03-14T14:12:37;11.30;82.50
20081;DHT22;10200;49.232;9.222;2023-03-14T14:15:28;11.20;82.30
20081;DHT22;10200;49.232;9.222;2023-03-14T14:17:58;11.30;83.00
20081;DHT22;10200;49.232;9.222;2023-03-14T14:20:40;11.40;82.90
20081;DHT22;10200;49.232;9.222;2023-03-14T14:23:10;11.50;80.90
20081;DHT22;10200;49.232;9.222;2023-03-14T14:25:37;11.40;77.40
20081;DHT22;10200;49.232;9.222;2023-03-14T14:28:25;11.40;76.70
20081;DHT22;10200;49.232;9.222;2023-03-14T14:31:21;11.30;76.40
20081;DHT22;10200;49.232;9.222;2023-03-14T14:38:58;11.10;74.50
20081;DHT22;10200;49.232;9.222;2023-03-14T14:41:29;11.10;76.10
20081;DHT22;10200;49.232;9.222;2023-03-14T14:43:55;11.20;75.60
20081;DHT22;10200;49.232;9.222;2023-03-14T14:46:21;11.30;75.30
20081;DHT22;10200;49.232;9.222;2023-03-14T14:48:47;11.30;75.20
20081;DHT22;10200;49.232;9.222;2023-03-14T14:51:23;11.30;75.20
20081;DHT22;10200;49.232;9.222;2023-03-14T14:53:49;11.40;73.20
20081;DHT22;10200;49.232;9.222;2023-03-14T14:56:19;11.30;73.00
20081;DHT22;10200;49.232;9.222;2023-03-14T14:58:48;11.30;72.60
20081;DHT22;10200;49.232;9.222;2023-03-14T15:01:18;11.30;73.40
20081;DHT22;10200;49.232;9.222;2023-03-14T15:03:47;11.30;72.60
20081;DHT22;10200;49.232;9.222;2023-03-14T15:06:15;11.30;71.40
20081;DHT22;10200;49.232;9.222;2023-03-14T15:08:43;11.40;72.30
20081;DHT22;10200;49.232;9.222;2023-03-14T15:11:16;11.40;70.50
20081;DHT22;10200;49.232;9.222;2023-03-14T15:13:42;11.60;71.00
20081;DHT22;10200;49.232;9.222;2023-03-14T15:16:10;11.80;69.70
20081;DHT22;10200;49.232;9.222;2023-03-14T15:18:36;11.90;68.20
20081;DHT22;10200;49.232;9.222;2023-03-14T15:21:02;12.00;67.90
20081;DHT22;10200;49.232;9.222;2023-03-14T15:23:28;12.10;66.10
20081;DHT22;10200;49.232;9.222;2023-03-14T15:25:54;12.10;64.70
20081;DHT22;10200;49.232;9.222;2023-03-14T15:28:26;12.20;63.70
20081;DHT22;10200;49.232;9.222;2023-03-14T15:30:54;12.20;63.20
20081;DHT22;10200;49.232;9.222;2023-03-14T15:33:20;12.20;62.00
20081;DHT22;10200;49.232;9.222;2023-03-14T15:35:46;12.10;61.60
20081;DHT22;10200;49.232;9.222;2023-03-14T15:38:14;12.00;62.50
20081;DHT22;10200;49.232;9.222;2023-03-14T15:40:41;11.90;62.10
20081;DHT22;10200;49.232;9.222;2023-03-14T15:43:07;11.90;62.40
20081;DHT22;10200;49.232;9.222;2023-03-14T15:45:34;11.90;61.70
20081;DHT22;10200;49.232;9.222;2023-03-14T15:48:00;11.80;61.70
20081;DHT22;10200;49.232;9.222;2023-03-14T15:50:25;11.80;61.90
20081;DHT22;10200;49.232;9.222;2023-03-14T15:52:51;11.80;62.00
20081;DHT22;10200;49.232;9.222;2023-03-14T15:55:17;11.80;61.60
20081;DHT22;10200;49.232;9.222;2023-03-14T15:57:44;11.80;61.50
20081;DHT22;10200;49.232;9.222;2023-03-14T16:00:13;11.80;61.60
20081;DHT22;10200;49.232;9.222;2023-03-14T16:02:40;11.70;61.60
20081;DHT22;10200;49.232;9.222;2023-03-14T16:05:09;11.70;62.40
20081;DHT22;10200;49.232;9.222;2023-03-14T16:07:35;11.70;62.00
20081;DHT22;10200;49.232;9.222;2023-03-14T16:10:01;11.60;61.30
20081;DHT22;10200;49.232;9.222;2023-03-14T16:12:27;11.60;60.90
20081;DHT22;10200;49.232;9.222;2023-03-14T16:14:52;11.50;61.20
20081;DHT22;10200;49.232;9.222;2023-03-14T16:17:18;11.50;61.50
20081;DHT22;10200;49.232;9.222;2023-03-14T16:19:43;11.40;61.90
20081;DHT22;10200;49.232;9.222;2023-03-14T16:22:09;11.40;61.70
20081;DHT22;10200;49.232;9.222;2023-03-14T16:24:35;11.30;61.80
20081;DHT22;10200;49.232;9.222;2023-03-14T16:27:00;11.30;62.90
20081;DHT22;10200;49.232;9.222;2023-03-14T16:29:26;11.20;63.10
20081;DHT22;10200;49.232;9.222;2023-03-14T16:31:51;11.20;63.40
20081;DHT22;10200;49.232;9.222;2023-03-14T16:34:17;11.10;64.20
20081;DHT22;10200;49.232;9.222;2023-03-14T16:36:43;11.00;64.50